Time;durP1;ratioP1;P1;durP2;ratioP2;P2;SDS_P1;SDS_P2;PMS_P1;PMS_P2;Temp;Humidity;BMP_temperature;BMP_pressure;BME280_temperature;BME280_humidity;BME280_pressure;Samples;Min_cycle;Max_cycle;Signal;HPM_P1;HPM_P2
2022/04/16 00:01:19;;;;;;;4.50;2.53;;;10.80;99.90;;;;;;4918887;29;20043;-83
2022/04/16 00:03:45;;;;;;;3.67;2.50;;;10.80;99.90;;;;;;4909649;29;20036;-84
2022/04/16 00:06:11;;;;;;;3.50;2.83;;;10.80;99.90;;;;;;4911122;29;20028;-84
2022/04/16 00:08:37;;;;;;;3.85;2.30;;;10.80;99.90;;;;;;4912607;29;20021;-83
2022/04/16 00:11:06;;;;;;;3.90;2.55;;;10.90;99.90;;;;;;4909618;29;20480;-83
2022/04/16 00:13:32;;;;;;;6.32;2.22;;;10.80;99.90;;;;;;4909525;29;20078;-84
2022/04/16 00:15:58;;;;;;;3.50;2.40;;;10.80;99.90;;;;;;4909884;29;20051;-84
2022/04/16 00:18:24;;;;;;;3.42;2.38;;;10.90;99.90;;;;;;4909201;29;20036;-84
2022/04/16 00:20:51;;;;;;;5.35;2.70;;;10.80;99.90;;;;;;4912210;29;20036;-84
2022/04/16 00:23:22;;;;;;;3.03;2.42;;;10.80;99.90;;;;;;4913343;29;20036;-84
2022/04/16 00:25:49;;;;;;;5.15;2.80;;;10.80;99.90;;;;;;4911996;29;20042;-85
2022/04/16 00:28:15;;;;;;;3.33;2.25;;;10.80;99.90;;;;;;4916897;29;20024;-84
2022/04/16 00:30:41;;;;;;;7.55;2.72;;;10.80;99.90;;;;;;4911331;29;20033;-85
2022/04/16 00:33:08;;;;;;;6.40;2.53;;;10.80;99.90;;;;;;4910903;29;20029;-84
2022/04/16 00:35:42;;;;;;;3.17;2.55;;;10.80;99.90;;;;;;4918192;29;20060;-84
2022/04/16 00:38:08;;;;;;;5.35;2.85;;;10.80;99.90;;;;;;4912484;29;20051;-85
2022/04/16 00:40:34;;;;;;;3.92;2.75;;;10.80;99.90;;;;;;4912605;29;20028;-84
2022/04/16 00:43:00;;;;;;;3.00;2.47;;;10.80;99.90;;;;;;4912961;29;20048;-84
2022/04/16 00:45:26;;;;;;;3.83;2.30;;;10.80;99.90;;;;;;4916532;29;20025;-85
2022/04/16 00:47:53;;;;;;;3.90;2.72;;;10.80;99.90;;;;;;4920694;29;20055;-85
2022/04/16 00:50:19;;;;;;;3.58;2.40;;;10.80;99.90;;;;;;4924208;29;20041;-85
2022/04/16 00:52:45;;;;;;;3.30;2.50;;;10.70;99.90;;;;;;4924046;29;20049;-82
2022/04/16 00:55:11;;;;;;;3.90;2.80;;;10.70;99.90;;;;;;4923683;29;20036;-84
2022/04/16 00:57:42;;;;;;;3.40;2.80;;;10.70;99.90;;;;;;4921532;29;20485;-84
2022/04/16 01:00:10;;;;;;;4.35;2.88;;;10.70;99.90;;;;;;4917794;29;20028;-85
2022/04/16 01:02:37;;;;;;;4.18;2.80;;;10.70;99.90;;;;;;4919547;29;20028;-85
2022/04/16 01:05:07;;;;;;;3.65;2.80;;;10.60;99.90;;;;;;4923019;29;20041;-84
2022/04/16 01:07:33;;;;;;;5.25;3.25;;;10.60;99.90;;;;;;4924019;29;20108;-84
2022/04/16 01:10:00;;;;;;;4.13;3.00;;;10.60;99.90;;;;;;4924868;29;20049;-84
2022/04/16 01:12:28;;;;;;;4.10;2.80;;;10.60;99.90;;;;;;4925249;29;20020;-85
2022/04/16 01:14:56;;;;;;;4.20;3.00;;;10.60;99.90;;;;;;4924185;29;20056;-84
2022/04/16 01:17:22;;;;;;;4.00;2.90;;;10.60;99.90;;;;;;4923404;29;20065;-85
2022/04/16 01:19:48;;;;;;;3.72;2.80;;;10.50;99.90;;;;;;4918927;29;20028;-85
2022/04/16 01:22:15;;;;;;;3.58;2.70;;;10.50;99.90;;;;;;4916657;29;20028;-84
2022/04/16 01:24:47;;;;;;;4.07;2.95;;;10.50;99.90;;;;;;4917636;29;20035;-84
2022/04/16 01:27:13;;;;;;;4.90;3.03;;;10.40;99.90;;;;;;4918454;29;20061;-84
2022/04/16 01:29:40;;;;;;;3.80;2.80;;;10.40;99.90;;;;;;4916320;29;20025;-86
2022/04/16 01:32:06;;;;;;;5.03;2.88;;;10.30;99.90;;;;;;4917099;29;20080;-84
2022/04/16 01:34:32;;;;;;;4.03;3.28;;;10.30;99.90;;;;;;4917653;29;20056;-85
2022/04/16 01:37:02;;;;;;;4.57;3.20;;;10.30;99.90;;;;;;4916771;29;20033;-83
2022/04/16 01:39:31;;;;;;;4.57;3.28;;;10.30;99.90;;;;;;4922023;29;20075;-84
2022/04/16 01:41:58;;;;;;;4.78;3.22;;;10.30;99.90;;;;;;4916239;29;20017;-84
2022/04/16 01:44:24;;;;;;;5.13;3.42;;;10.20;99.90;;;;;;4921155;29;20040;-83
2022/04/16 01:46:50;;;;;;;5.22;3.38;;;10.20;99.90;;;;;;4924394;29;20042;-84
2022/04/16 01:49:15;;;;;;;4.00;3.13;;;10.30;99.90;;;;;;4924546;29;20029;-83
2022/04/16 01:51:41;;;;;;;3.72;3.13;;;10.30;99.90;;;;;;4924240;29;20192;-83
2022/04/16 01:54:07;;;;;;;5.25;3.25;;;10.40;99.90;;;;;;4923202;29;20071;-85
2022/04/16 01:56:33;;;;;;;4.75;3.35;;;10.30;99.90;;;;;;4920318;29;20093;-85
2022/04/16 01:58:58;;;;;;;4.35;3.20;;;10.40;99.90;;;;;;4914775;29;20064;-85
2022/04/16 02:01:24;;;;;;;4.07;3.28;;;10.40;99.90;;;;;;4916831;29;20397;-85
2022/04/16 02:03:50;;;;;;;4.47;3.00;;;10.40;99.90;;;;;;4916353;29;20037;-84
2022/04/16 02:06:17;;;;;;;4.82;3.53;;;10.40;99.90;;;;;;4917467;29;20033;-84
2022/04/16 02:08:43;;;;;;;4.72;3.50;;;10.40;99.90;;;;;;4916161;29;20089;-83
2022/04/16 02:11:09;;;;;;;5.20;3.22;;;10.40;99.90;;;;;;4914349;29;20065;-85
2022/04/16 02:13:35;;;;;;;5.75;3.40;;;10.40;99.90;;;;;;4918286;29;20028;-84
2022/04/16 02:16:01;;;;;;;5.65;3.53;;;10.40;99.90;;;;;;4915912;29;20029;-84
2022/04/16 02:18:27;;;;;;;4.88;3.25;;;10.30;99.90;;;;;;4913913;29;20484;-84
2022/04/16 02:20:53;;;;;;;5.40;3.50;;;10.20;99.90;;;;;;4915566;29;20025;-85
2022/04/16 02:23:19;;;;;;;4.60;3.20;;;10.20;99.90;;;;;;4919046;29;20040;-85
2022/04/16 02:25:45;;;;;;;4.82;3.42;;;10.10;99.90;;;;;;4914114;29;20032;-84
2022/04/16 02:28:11;;;;;;;4.93;3.25;;;10.10;99.90;;;;;;4915168;29;20033;-84
2022/04/16 02:30:37;;;;;;;5.90;3.63;;;10.00;99.90;;;;;;4918272;29;20035;-85
2022/04/16 02:33:03;;;;;;;5.00;3.67;;;9.90;99.90;;;;;;4919238;29;20033;-83
2022/04/16 02:35:29;;;;;;;5.28;3.25;;;9.90;99.90;;;;;;4923083;29;20165;-85
2022/04/16 02:37:56;;;;;;;4.85;3.78;;;9.90;99.90;;;;;;4923025;29;20044;-84
2022/04/16 02:40:21;;;;;;;4.55;3.45;;;9.90;99.90;;;;;;4923616;29;20182;-85
2022/04/16 02:42:47;;;;;;;5.30;3.22;;;9.80;99.90;;;;;;4923085;29;20057;-85
2022/04/16 02:47:59;;;;;;;4.85;3.25;;;9.80;99.90;;;;;;4919099;29;20047;-85
2022/04/16 02:50:25;;;;;;;6.18;3.67;;;9.90;99.90;;;;;;4920931;29;20037;-83
2022/04/16 02:52:53;;;;;;;4.00;3.20;;;9.90;99.90;;;;;;4921215;29;20040;-84
2022/04/16 02:55:19;;;;;;;5.57;3.55;;;9.90;99.90;;;;;;4902330;29;20032;-84
2022/04/16 02:57:45;;;;;;;4.72;3.30;;;10.00;99.90;;;;;;4920717;29;20052;-84
2022/04/16 03:00:13;;;;;;;5.72;3.47;;;10.10;99.90;;;;;;4919814;29;20040;-85
2022/04/16 03:02:39;;;;;;;5.30;3.45;;;10.10;99.90;;;;;;4914863;29;20040;-84
2022/04/16 03:05:09;;;;;;;4.90;3.65;;;10.20;99.90;;;;;;4919429;29;20041;-84
2022/04/16 03:07:36;;;;;;;9.80;3.33;;;10.20;99.90;;;;;;4922343;29;20028;-81
2022/04/16 03:10:03;;;;;;;6.28;3.50;;;10.20;99.90;;;;;;4919926;29;20024;-84
2022/04/16 03:12:51;;;;;;;4.57;3.38;;;10.30;99.90;;;;;;4921784;29;20061;-81
2022/04/16 03:18:04;;;;;;;3.85;2.70;;;10.30;99.90;;;;;;4914121;29;20041;-83
2022/04/16 03:20:30;;;;;;;4.28;2.92;;;10.30;99.90;;;;;;4915583;29;20040;-83
2022/04/16 03:23:00;;;;;;;4.68;2.92;;;10.30;99.90;;;;;;4917995;29;20036;-84
2022/04/16 03:25:27;;;;;;;5.43;3.10;;;10.30;99.90;;;;;;4918148;29;20524;-85
2022/04/16 03:27:54;;;;;;;5.30;3.78;;;10.30;99.90;;;;;;4914929;29;20043;-84
2022/04/16 03:30:20;;;;;;;4.88;3.00;;;10.30;99.90;;;;;;4913274;29;20052;-85
2022/04/16 03:32:49;;;;;;;5.13;3.30;;;10.30;99.90;;;;;;4919627;29;20012;-85
2022/04/16 03:35:18;;;;;;;5.28;2.88;;;10.20;99.90;;;;;;4918452;29;20037;-84
2022/04/16 03:37:45;;;;;;;4.53;3.05;;;10.20;99.90;;;;;;4913682;29;20029;-84
2022/04/16 03:40:12;;;;;;;5.80;2.80;;;10.20;99.90;;;;;;4915628;29;20017;-84
2022/04/16 03:43:05;;;;;;;4.63;2.97;;;10.10;99.90;;;;;;4920593;29;20059;-85
2022/04/16 03:45:34;;;;;;;4.72;3.40;;;10.20;99.90;;;;;;4903233;29;20056;-84
2022/04/16 03:48:01;;;;;;;5.13;3.17;;;10.20;99.90;;;;;;4920250;29;20043;-84
2022/04/16 03:50:29;;;;;;;5.15;3.38;;;10.20;99.90;;;;;;4914429;29;20033;-84
2022/04/16 03:52:56;;;;;;;5.40;3.40;;;10.20;99.90;;;;;;4914836;29;20044;-84
2022/04/16 04:01:01;;;;;;;5.05;3.70;;;10.20;99.90;;;;;;4915769;29;20041;-83
2022/04/16 04:03:27;;;;;;;5.10;3.83;;;10.20;99.90;;;;;;4913015;29;20036;-83
2022/04/16 04:05:54;;;;;;;7.10;4.57;;;10.20;99.90;;;;;;4912357;29;20032;-84
2022/04/16 04:08:22;;;;;;;4.85;3.40;;;10.20;99.90;;;;;;4913420;29;20079;-84
2022/04/16 04:10:48;;;;;;;6.97;4.10;;;10.30;99.90;;;;;;4919250;29;20048;-84
2022/04/16 04:13:15;;;;;;;6.60;4.03;;;10.30;99.90;;;;;;4914915;29;20052;-84
2022/04/16 04:15:40;;;;;;;5.95;4.07;;;10.20;99.90;;;;;;4897036;29;20036;-84
2022/04/16 04:18:07;;;;;;;6.60;4.50;;;10.20;99.90;;;;;;4912397;29;20057;-83
2022/04/16 04:20:35;;;;;;;6.38;4.55;;;10.30;99.90;;;;;;4913377;29;20072;-85
2022/04/16 04:23:02;;;;;;;6.68;3.80;;;10.20;99.90;;;;;;4913614;29;20111;-84
2022/04/16 04:25:28;;;;;;;5.93;4.00;;;10.20;99.90;;;;;;4914696;29;20115;-84
2022/04/16 04:27:54;;;;;;;4.78;3.72;;;10.20;99.90;;;;;;4916837;29;20044;-85
2022/04/16 04:30:19;;;;;;;6.63;4.13;;;10.20;99.90;;;;;;4917184;29;20052;-82
2022/04/16 04:32:45;;;;;;;6.25;4.57;;;10.20;99.90;;;;;;4919490;29;20032;-83
2022/04/16 04:35:11;;;;;;;6.55;4.22;;;10.30;99.90;;;;;;4921478;29;20031;-84
2022/04/16 04:37:37;;;;;;;7.75;4.25;;;10.20;99.90;;;;;;4919950;29;20032;-85
2022/04/16 04:40:04;;;;;;;5.80;4.25;;;10.30;99.90;;;;;;4920700;29;20021;-82
2022/04/16 04:42:32;;;;;;;7.00;4.50;;;10.20;99.90;;;;;;4919606;29;20058;-84
2022/04/16 04:44:58;;;;;;;7.68;4.85;;;10.30;99.90;;;;;;4918863;29;20088;-82
2022/04/16 04:47:24;;;;;;;7.32;4.50;;;10.30;99.90;;;;;;4920986;29;20051;-84
2022/04/16 04:49:50;;;;;;;7.35;4.97;;;10.20;99.90;;;;;;4919354;29;20064;-83
2022/04/16 04:52:26;;;;;;;8.13;5.75;;;10.20;99.90;;;;;;4920743;29;20032;-82
2022/04/16 04:55:01;;;;;;;9.75;4.80;;;10.20;99.90;;;;;;4921395;29;20045;-84
2022/04/16 04:57:28;;;;;;;7.35;4.85;;;10.20;99.90;;;;;;4920570;29;20060;-83
2022/04/16 04:59:54;;;;;;;7.70;5.43;;;10.20;99.90;;;;;;4921605;29;20051;-83
2022/04/16 05:02:20;;;;;;;7.55;5.10;;;10.20;99.90;;;;;;4921285;29;20108;-84
2022/04/16 05:04:46;;;;;;;8.88;5.57;;;10.20;99.90;;;;;;4903347;29;20033;-85
2022/04/16 05:07:13;;;;;;;7.75;5.50;;;10.20;99.90;;;;;;4919411;29;20036;-83
2022/04/16 05:09:39;;;;;;;5.60;4.38;;;10.10;99.90;;;;;;4921273;29;20067;-86
2022/04/16 05:12:05;;;;;;;7.03;4.82;;;10.10;99.90;;;;;;4918498;29;20064;-86
2022/04/16 05:14:34;;;;;;;10.32;5.53;;;10.10;99.90;;;;;;4914908;29;20082;-85
2022/04/16 05:17:00;;;;;;;7.15;4.63;;;10.10;99.90;;;;;;4913419;29;20043;-85
2022/04/16 05:19:26;;;;;;;7.55;5.28;;;10.10;99.90;;;;;;4916568;29;20353;-82
2022/04/16 05:21:52;;;;;;;7.57;4.80;;;10.10;99.90;;;;;;4920343;29;20032;-86
2022/04/16 05:24:17;;;;;;;6.68;4.35;;;10.10;99.90;;;;;;4917908;29;20040;-84
2022/04/16 05:26:43;;;;;;;6.38;4.15;;;10.10;99.90;;;;;;4916150;29;20407;-85
2022/04/16 05:29:09;;;;;;;6.07;4.10;;;10.00;99.90;;;;;;4914453;29;20060;-85
2022/04/16 05:31:35;;;;;;;5.38;3.97;;;10.00;99.90;;;;;;4912357;29;20025;-84
2022/04/16 05:34:19;;;;;;;5.80;3.80;;;10.00;99.90;;;;;;4915292;29;20029;-86
2022/04/16 05:36:47;;;;;;;4.80;3.30;;;10.00;99.90;;;;;;4923427;29;20042;-86
2022/04/16 05:39:13;;;;;;;5.15;3.33;;;10.10;99.90;;;;;;4922953;29;20025;-85
2022/04/16 05:41:39;;;;;;;5.70;3.30;;;10.10;99.90;;;;;;4907327;29;20028;-85
2022/04/16 05:44:05;;;;;;;3.55;2.90;;;10.10;99.90;;;;;;4924455;29;20063;-84
2022/04/16 05:46:31;;;;;;;4.80;3.35;;;10.10;99.90;;;;;;4924666;29;20016;-84
2022/04/16 05:48:58;;;;;;;4.53;3.33;;;10.10;99.90;;;;;;4934821;23;20043;-79
2022/04/16 05:51:26;;;;;;;4.50;3.05;;;10.10;99.90;;;;;;4914390;29;20056;-79
2022/04/16 05:53:52;;;;;;;3.53;2.50;;;10.10;99.90;;;;;;4916057;29;20025;-81
2022/04/16 05:56:19;;;;;;;5.38;2.78;;;10.20;99.90;;;;;;4914025;29;20164;-82
2022/04/16 05:58:45;;;;;;;4.85;3.35;;;10.20;99.90;;;;;;4897031;29;20025;-82
2022/04/16 06:01:13;;;;;;;4.93;3.20;;;10.20;99.90;;;;;;4912913;29;20032;-84
2022/04/16 06:03:40;;;;;;;6.30;3.90;;;10.10;99.90;;;;;;4911991;29;20127;-80
2022/04/16 06:06:10;;;;;;;5.40;3.80;;;10.20;99.90;;;;;;4911379;29;20044;-82
2022/04/16 06:08:38;;;;;;;4.90;3.75;;;10.20;99.90;;;;;;4911545;29;20028;-83
2022/04/16 06:11:06;;;;;;;4.45;3.67;;;10.20;99.90;;;;;;4910301;29;20051;-83
2022/04/16 06:13:32;;;;;;;4.57;3.22;;;10.10;99.90;;;;;;4910886;29;20385;-82
2022/04/16 06:15:59;;;;;;;3.67;3.10;;;10.10;99.90;;;;;;4910636;29;20053;-81
2022/04/16 06:18:25;;;;;;;3.78;2.88;;;10.10;99.90;;;;;;4911641;29;20047;-81
2022/04/16 06:20:50;;;;;;;4.13;2.80;;;10.10;99.90;;;;;;4912726;29;20029;-84
2022/04/16 06:23:19;;;;;;;2.60;2.20;;;10.20;99.90;;;;;;4911208;29;20405;-83
2022/04/16 06:25:45;;;;;;;2.80;2.22;;;10.30;99.90;;;;;;4911859;29;20025;-81
2022/04/16 06:28:11;;;;;;;3.38;2.17;;;10.40;99.90;;;;;;4913640;29;20063;-81
2022/04/16 06:30:36;;;;;;;3.30;1.88;;;10.40;99.90;;;;;;4910569;29;20032;-83
2022/04/16 06:33:02;;;;;;;2.55;2.08;;;10.50;99.90;;;;;;4910035;29;20036;-82
2022/04/16 06:35:28;;;;;;;2.60;1.73;;;10.60;99.90;;;;;;4908967;29;20032;-83
2022/04/16 06:37:54;;;;;;;2.75;2.08;;;10.70;99.90;;;;;;4908598;29;20029;-81
2022/04/16 06:40:20;;;;;;;2.60;1.88;;;10.70;99.90;;;;;;4907239;29;20048;-82
2022/04/16 06:42:52;;;;;;;2.17;1.60;;;10.90;99.90;;;;;;4908167;29;20047;-82
2022/04/16 06:45:20;;;;;;;2.58;1.70;;;11.00;99.90;;;;;;4908108;29;20033;-80
2022/04/16 06:47:46;;;;;;;3.13;1.50;;;10.90;99.90;;;;;;4915406;29;20043;-80
2022/04/16 06:50:12;;;;;;;1.63;1.30;;;10.80;99.90;;;;;;4913480;29;20025;-80
2022/04/16 06:52:38;;;;;;;2.50;1.58;;;10.60;99.90;;;;;;4910092;29;20033;-82
2022/04/16 06:55:05;;;;;;;1.98;1.52;;;10.60;99.90;;;;;;4914991;29;20024;-81
2022/04/16 06:57:31;;;;;;;3.80;1.50;;;10.50;99.90;;;;;;4919148;29;20148;-83
2022/04/16 06:59:56;;;;;;;1.75;1.52;;;10.50;99.90;;;;;;4915650;29;20088;-82
2022/04/16 07:02:22;;;;;;;4.00;1.50;;;10.70;99.90;;;;;;4918243;29;20028;-79
2022/04/16 07:04:48;;;;;;;1.40;0.98;;;10.70;99.90;;;;;;4919766;29;20048;-83
2022/04/16 07:07:14;;;;;;;2.08;1.30;;;10.80;99.90;;;;;;4914585;29;20029;-79
2022/04/16 07:09:40;;;;;;;2.38;1.20;;;10.80;99.90;;;;;;4908620;29;20048;-80
2022/04/16 07:12:10;;;;;;;1.88;1.30;;;10.90;99.90;;;;;;4909692;29;20025;-82
2022/04/16 07:14:38;;;;;;;1.90;1.23;;;10.90;99.90;;;;;;4910228;29;20029;-78
2022/04/16 07:17:05;;;;;;;1.83;1.08;;;11.00;99.90;;;;;;4908090;29;20060;-81
2022/04/16 07:19:32;;;;;;;1.10;1.00;;;11.00;99.90;;;;;;4891798;29;20084;-81
2022/04/16 07:21:58;;;;;;;1.73;1.10;;;11.00;99.90;;;;;;4906793;29;20051;-79
2022/04/16 07:24:27;;;;;;;1.40;1.20;;;10.90;99.90;;;;;;4907315;29;20504;-81
2022/04/16 07:26:54;;;;;;;1.98;1.15;;;10.90;99.90;;;;;;4906663;29;20031;-80
2022/04/16 07:29:26;;;;;;;1.90;1.20;;;10.90;99.90;;;;;;4906508;29;20051;-80
2022/04/16 07:31:52;;;;;;;2.33;1.15;;;10.90;99.90;;;;;;4915979;29;20028;-81
2022/04/16 07:34:18;;;;;;;1.55;1.30;;;10.80;99.90;;;;;;4920293;29;20411;-84
2022/04/16 07:36:45;;;;;;;2.20;1.27;;;10.70;99.90;;;;;;4913586;29;20036;-82
2022/04/16 07:39:12;;;;;;;1.88;1.20;;;10.70;99.90;;;;;;4894231;29;20079;-84
2022/04/16 07:41:38;;;;;;;5.43;1.33;;;10.60;99.90;;;;;;4911144;29;20045;-82
2022/04/16 07:44:04;;;;;;;1.50;1.27;;;10.70;99.90;;;;;;4907902;29;20092;-81
2022/04/16 07:46:31;;;;;;;1.65;1.13;;;10.60;99.90;;;;;;4916005;29;20052;-82
2022/04/16 07:48:57;;;;;;;1.35;1.02;;;10.40;99.90;;;;;;4914552;29;20100;-84
2022/04/16 07:51:24;;;;;;;1.45;1.10;;;10.40;99.90;;;;;;4912337;29;20455;-81
2022/04/16 07:53:50;;;;;;;1.83;1.10;;;10.40;99.90;;;;;;4926184;29;20047;-82
2022/04/16 07:56:16;;;;;;;4.72;1.30;;;10.40;99.90;;;;;;4926331;29;20062;-82
2022/04/16 07:58:41;;;;;;;1.10;1.00;;;10.30;99.90;;;;;;4909549;29;20028;-81
2022/04/16 08:01:07;;;;;;;1.35;0.98;;;10.30;99.90;;;;;;4925703;29;20107;-81
2022/04/16 08:03:33;;;;;;;0.80;0.80;;;10.40;99.90;;;;;;4920849;29;20031;-81
2022/04/16 08:05:59;;;;;;;2.15;1.15;;;10.40;99.90;;;;;;4888890;29;20049;-85
2022/04/16 08:08:25;;;;;;;1.55;1.10;;;10.40;99.90;;;;;;4899549;29;20058;-81
2022/04/16 08:10:51;;;;;;;1.10;1.00;;;10.30;99.90;;;;;;4907713;29;20056;-81
2022/04/16 08:13:18;;;;;;;2.33;1.20;;;10.30;99.90;;;;;;4908187;29;20053;-80
2022/04/16 08:15:47;;;;;;;2.47;1.30;;;10.30;99.90;;;;;;4908467;29;20024;-83
2022/04/16 08:18:14;;;;;;;1.55;1.20;;;10.20;99.90;;;;;;4911149;29;20035;-83
2022/04/16 08:20:39;;;;;;;2.60;1.13;;;10.10;99.90;;;;;;4910238;29;20076;-83
2022/04/16 08:23:06;;;;;;;1.83;1.20;;;10.10;99.90;;;;;;4908455;29;20024;-83
2022/04/16 08:28:01;;;;;;;2.42;1.50;;;10.00;99.90;;;;;;4912601;29;20044;-81
2022/04/16 08:30:28;;;;;;;1.40;0.98;;;10.00;99.90;;;;;;4913683;29;20031;-86
2022/04/16 08:32:54;;;;;;;1.38;1.10;;;10.00;99.90;;;;;;4913388;29;20037;-83
2022/04/16 08:35:20;;;;;;;1.58;1.20;;;10.00;99.90;;;;;;4910995;29;20032;-82
2022/04/16 08:37:48;;;;;;;2.85;1.55;;;10.00;99.90;;;;;;4914828;29;20049;-82
2022/04/16 08:40:14;;;;;;;2.90;1.30;;;10.00;99.90;;;;;;4908699;29;20489;-84
2022/04/16 08:42:41;;;;;;;1.80;1.10;;;10.00;99.90;;;;;;4909697;29;20040;-82
2022/04/16 08:45:09;;;;;;;5.43;1.60;;;10.10;99.90;;;;;;4913281;29;20024;-83
2022/04/16 08:47:38;;;;;;;2.08;1.23;;;10.10;99.90;;;;;;4909877;29;20064;-82
2022/04/16 08:50:07;;;;;;;1.98;1.30;;;10.10;99.90;;;;;;4911477;29;20051;-83
2022/04/16 08:52:34;;;;;;;1.67;1.38;;;10.20;99.90;;;;;;4907587;29;20047;-83
2022/04/16 08:55:03;;;;;;;1.98;1.38;;;10.10;99.90;;;;;;4909153;29;20028;-80
2022/04/16 08:57:28;;;;;;;1.88;1.38;;;10.10;99.90;;;;;;4908628;29;20464;-83
2022/04/16 08:59:55;;;;;;;1.95;1.20;;;10.10;99.90;;;;;;4909168;29;20096;-83
2022/04/16 09:02:26;;;;;;;1.65;1.42;;;10.10;99.90;;;;;;4907201;29;20028;-80
2022/04/16 09:05:09;;;;;;;3.00;1.75;;;10.00;99.90;;;;;;4909324;29;20227;-84
2022/04/16 09:07:49;;;;;;;3.78;1.92;;;10.10;99.90;;;;;;4908056;29;20112;-81
2022/04/16 09:10:16;;;;;;;2.22;1.80;;;10.10;99.90;;;;;;4909982;29;20033;-82
2022/04/16 09:12:42;;;;;;;6.53;1.75;;;10.10;99.90;;;;;;4919072;29;20056;-82
2022/04/16 09:15:09;;;;;;;2.83;2.08;;;10.10;99.90;;;;;;4909311;29;20032;-82
2022/04/16 09:17:37;;;;;;;2.63;1.83;;;10.10;99.90;;;;;;4908698;29;20036;-83
2022/04/16 09:20:13;;;;;;;3.03;1.88;;;10.30;99.90;;;;;;4909282;29;20044;-84
2022/04/16 09:22:41;;;;;;;2.30;1.60;;;10.40;99.90;;;;;;4907863;29;20052;-82
2022/04/16 09:25:14;;;;;;;2.53;1.90;;;10.50;99.90;;;;;;4916199;29;20033;-83
2022/04/16 09:27:46;;;;;;;3.58;1.98;;;10.50;99.90;;;;;;4914215;29;20036;-82
2022/04/16 09:30:13;;;;;;;4.45;1.88;;;10.60;99.90;;;;;;4909360;29;20033;-81
2022/04/16 09:32:45;;;;;;;5.07;1.85;;;10.70;99.90;;;;;;4908149;29;20088;-81
2022/04/16 09:35:30;;;;;;;4.57;1.90;;;10.90;99.90;;;;;;4907440;29;20539;-81
2022/04/16 09:37:57;;;;;;;2.33;1.92;;;11.10;99.90;;;;;;4909290;29;20040;-84
2022/04/16 09:40:27;;;;;;;3.85;2.53;;;11.30;99.90;;;;;;4909325;29;20085;-81
2022/04/16 09:42:54;;;;;;;2.38;1.90;;;11.50;99.90;;;;;;4916796;29;20017;-80
2022/04/16 09:45:20;;;;;;;2.78;1.95;;;11.60;99.90;;;;;;4919577;29;20084;-79
2022/04/16 09:47:50;;;;;;;5.28;1.85;;;11.60;99.90;;;;;;4920853;29;20036;-79
2022/04/16 09:50:21;;;;;;;2.83;2.00;;;11.80;99.90;;;;;;4914907;29;20047;-81
2022/04/16 09:52:51;;;;;;;3.00;1.90;;;11.80;99.90;;;;;;4916753;29;20056;-80
2022/04/16 09:55:21;;;;;;;3.20;2.05;;;11.80;99.90;;;;;;4920686;29;20021;-81
2022/04/16 09:58:01;;;;;;;8.95;2.05;;;12.00;99.90;;;;;;4918721;29;20033;-81
2022/04/16 10:00:28;;;;;;;5.90;2.00;;;12.20;99.90;;;;;;4919041;29;20100;-80
2022/04/16 10:02:55;;;;;;;2.33;1.85;;;12.30;99.90;;;;;;4922242;29;20053;-81
2022/04/16 10:05:24;;;;;;;3.85;2.00;;;12.30;99.90;;;;;;4919451;29;20071;-83
2022/04/16 10:07:52;;;;;;;3.28;1.85;;;12.30;99.70;;;;;;4912545;29;20196;-81
2022/04/16 10:10:28;;;;;;;4.65;1.70;;;12.20;99.80;;;;;;4909390;29;20043;-83
2022/04/16 10:13:04;;;;;;;3.15;2.03;;;12.10;99.70;;;;;;4916309;29;20032;-83
2022/04/16 10:15:48;;;;;;;2.70;2.10;;;12.20;99.80;;;;;;4900413;29;20039;-82
2022/04/16 10:18:15;;;;;;;3.75;2.00;;;12.40;99.20;;;;;;4911415;29;20029;-82
2022/04/16 10:20:51;;;;;;;3.53;2.10;;;12.60;99.00;;;;;;4917361;29;20012;-82
2022/04/16 10:23:28;;;;;;;3.70;2.35;;;12.60;98.50;;;;;;4919851;29;20076;-81
2022/04/16 10:26:14;;;;;;;3.70;1.92;;;12.40;98.60;;;;;;4917681;29;20032;-81
2022/04/16 10:28:44;;;;;;;4.85;2.10;;;12.20;98.70;;;;;;4912478;29;20043;-82
2022/04/16 10:31:28;;;;;;;3.40;2.05;;;12.10;98.60;;;;;;4910014;29;20422;-81
2022/04/16 10:34:16;;;;;;;2.75;2.05;;;12.00;98.70;;;;;;4911149;29;20520;-83
2022/04/16 10:36:49;;;;;;;3.67;2.38;;;11.90;98.90;;;;;;4917851;29;20035;-80
2022/04/16 10:39:15;;;;;;;3.70;2.13;;;11.90;99.00;;;;;;4918610;29;20043;-81
2022/04/16 10:41:54;;;;;;;3.30;2.40;;;11.80;99.20;;;;;;4917879;29;20052;-81
2022/04/16 10:44:19;;;;;;;4.70;2.72;;;11.70;99.10;;;;;;4915487;29;20043;-82
2022/04/16 10:46:48;;;;;;;4.40;2.50;;;11.60;99.10;;;;;;4916612;29;20032;-82
2022/04/16 10:49:16;;;;;;;5.43;2.35;;;11.50;99.20;;;;;;4915672;29;20041;-82
2022/04/16 10:51:42;;;;;;;5.28;2.33;;;11.40;99.30;;;;;;4898425;29;20116;-82
2022/04/16 10:54:32;;;;;;;5.38;2.70;;;11.40;99.70;;;;;;4915310;29;20063;-81
2022/04/16 10:56:59;;;;;;;4.35;2.85;;;11.20;99.60;;;;;;4908439;29;20040;-82
2022/04/16 10:59:45;;;;;;;4.93;2.72;;;11.00;99.60;;;;;;4908962;29;20087;-81
2022/04/16 11:02:30;;;;;;;3.85;2.60;;;10.90;99.90;;;;;;4909553;29;20045;-81
2022/04/16 11:05:03;;;;;;;;;;;10.80;99.90;;;;;;4908590;29;20052;-82
2022/04/16 11:07:30;;;;;;;6.22;2.70;;;10.70;99.90;;;;;;4907657;29;19919;-83
2022/04/16 11:09:56;;;;;;;5.38;3.35;;;10.60;99.90;;;;;;4907884;29;20036;-81
2022/04/16 11:12:24;;;;;;;3.90;2.70;;;10.60;99.90;;;;;;4906742;29;20516;-81
2022/04/16 11:14:51;;;;;;;5.57;3.35;;;10.60;99.90;;;;;;4908777;29;20024;-81
2022/04/16 11:17:19;;;;;;;6.57;2.67;;;10.70;99.90;;;;;;4911946;29;20039;-81
2022/04/16 11:19:47;;;;;;;4.90;3.13;;;10.70;99.90;;;;;;4911261;29;20088;-82
2022/04/16 11:22:13;;;;;;;9.27;3.85;;;10.70;99.90;;;;;;4913678;29;20033;-84
2022/04/16 11:24:39;;;;;;;7.85;2.88;;;10.70;99.90;;;;;;4912802;29;20029;-82
2022/04/16 11:35:25;;;;;;;3.90;2.73;;;10.50;99.60;;;;;;4913859;29;20280;-81
2022/04/16 11:37:55;;;;;;;4.05;2.65;;;10.50;99.70;;;;;;4909942;29;20285;-79
2022/04/16 11:40:21;;;;;;;3.33;2.60;;;10.50;99.60;;;;;;4913355;29;20059;-80
2022/04/16 11:42:46;;;;;;;4.22;2.90;;;10.60;99.30;;;;;;4911766;29;20028;-80
2022/04/16 11:45:14;;;;;;;7.63;3.08;;;10.60;99.10;;;;;;4916586;29;20044;-81
2022/04/16 11:50:09;;;;;;;4.43;2.85;;;10.80;98.40;;;;;;4900500;29;20033;-82
2022/04/16 11:52:36;;;;;;;5.47;2.45;;;10.80;98.50;;;;;;4885001;29;20037;-85
2022/04/16 11:55:05;;;;;;;3.15;2.50;;;10.90;98.70;;;;;;4898980;29;20048;-84
2022/04/16 11:57:31;;;;;;;4.90;2.83;;;10.90;98.70;;;;;;4897843;29;20029;-83
2022/04/16 12:00:08;;;;;;;6.20;2.80;;;11.00;98.30;;;;;;4901708;29;20100;-80
2022/04/16 12:02:38;;;;;;;5.22;2.80;;;11.10;98.10;;;;;;4918213;29;20037;-81
2022/04/16 12:05:15;;;;;;;4.85;3.05;;;11.00;97.80;;;;;;4903201;29;20017;-83
2022/04/16 12:07:43;;;;;;;3.85;2.83;;;10.90;97.90;;;;;;4917246;29;20053;-82
2022/04/16 12:10:11;;;;;;;4.22;2.70;;;11.00;97.70;;;;;;4902191;29;20063;-84
2022/04/16 12:12:56;;;;;;;5.32;3.20;;;11.10;97.60;;;;;;4900883;29;20029;-84
2022/04/16 12:15:29;;;;;;;5.78;2.78;;;11.20;97.50;;;;;;4901266;29;20042;-83
2022/04/16 12:17:57;;;;;;;6.35;3.50;;;11.20;97.70;;;;;;4899117;29;20009;-84
2022/04/16 12:20:24;;;;;;;3.38;2.47;;;11.30;97.50;;;;;;4900690;29;20017;-85
2022/04/16 12:22:59;;;;;;;4.95;2.80;;;11.30;96.90;;;;;;4901186;29;20482;-84
2022/04/16 12:25:25;;;;;;;;;;;11.60;96.70;;;;;;4902005;29;20115;-82
2022/04/16 12:27:56;;;;;;;3.97;2.70;;;11.80;95.90;;;;;;4901330;29;19904;-84
2022/04/16 12:30:26;;;;;;;3.53;2.67;;;11.70;95.70;;;;;;4899904;29;20045;-83
2022/04/16 12:33:11;;;;;;;4.15;2.75;;;11.40;95.60;;;;;;4900793;29;20045;-83
2022/04/16 12:35:46;;;;;;;4.10;2.50;;;11.20;95.80;;;;;;4899828;29;20057;-84
2022/04/16 12:38:17;;;;;;;3.92;2.47;;;11.20;95.90;;;;;;4899791;29;20063;-83
2022/04/16 12:40:43;;;;;;;4.18;2.80;;;11.30;95.80;;;;;;4896945;29;20041;-83
2022/04/16 12:43:09;;;;;;;4.70;3.03;;;11.40;95.40;;;;;;4902111;29;20066;-82
2022/04/16 12:45:35;;;;;;;5.70;3.22;;;11.60;95.30;;;;;;4915216;29;20140;-85
2022/04/16 12:48:02;;;;;;;4.43;2.50;;;11.80;94.80;;;;;;4899417;29;20052;-85
2022/04/16 12:50:31;;;;;;;5.60;2.85;;;11.90;94.40;;;;;;4899206;29;20052;-85
2022/04/16 12:52:59;;;;;;;2.97;2.25;;;12.10;94.20;;;;;;4900893;29;20041;-84
2022/04/16 12:55:25;;;;;;;4.38;2.60;;;12.40;93.90;;;;;;4898217;29;20067;-84
2022/04/16 12:57:51;;;;;;;4.38;2.65;;;12.60;93.50;;;;;;4899104;29;20120;-83
2022/04/16 13:00:17;;;;;;;3.85;2.30;;;12.50;93.20;;;;;;4901935;29;20029;-83
2022/04/16 13:02:44;;;;;;;4.55;2.80;;;12.20;93.00;;;;;;4901544;29;20021;-84
2022/04/16 13:05:12;;;;;;;2.97;2.38;;;12.20;93.20;;;;;;4897086;29;20048;-84
2022/04/16 13:07:39;;;;;;;3.83;2.30;;;12.10;93.10;;;;;;4895269;29;20029;-83
2022/04/16 13:10:06;;;;;;;6.65;2.50;;;12.00;93.00;;;;;;4897968;29;20065;-82
2022/04/16 13:12:33;;;;;;;3.75;2.38;;;11.90;93.20;;;;;;4901217;29;20061;-82
2022/04/16 13:14:59;;;;;;;4.03;2.33;;;11.70;93.40;;;;;;4901350;29;20040;-81
2022/04/16 13:17:25;;;;;;;3.95;2.65;;;11.40;93.10;;;;;;4900855;29;20445;-83